createdAt,value
2018-01-28T00:01:37.506Z,48.39
2018-01-28T00:04:04.086Z,48.36
2018-01-28T00:06:30.316Z,48.39
2018-01-28T00:08:56.508Z,48.43
2018-01-28T00:11:22.720Z,48.40
2018-01-28T00:13:48.935Z,48.41
2018-01-28T00:16:15.436Z,48.41
2018-01-28T00:18:42.087Z,48.41
2018-01-28T00:21:08.339Z,48.44
2018-01-28T00:23:34.502Z,48.45
2018-01-28T00:26:01.010Z,48.52
2018-01-28T00:28:27.493Z,48.49
2018-01-28T00:30:53.663Z,48.49
2018-01-28T00:33:26.174Z,48.54
2018-01-28T00:35:52.335Z,48.48
2018-01-28T00:38:18.564Z,48.46
2018-01-28T00:40:44.846Z,48.45
2018-01-28T00:43:11.035Z,48.45
2018-01-28T00:45:37.210Z,48.47
2018-01-28T00:48:03.440Z,48.46
2018-01-28T00:50:30.005Z,48.48
2018-01-28T00:52:56.218Z,48.50
2018-01-28T00:55:22.760Z,48.49
2018-01-28T00:57:49.016Z,48.48
2018-01-28T01:00:15.211Z,48.51
2018-01-28T01:02:41.752Z,48.46
2018-01-28T01:05:08.189Z,48.50
2018-01-28T01:07:34.409Z,48.48
2018-01-28T01:10:00.700Z,48.47
2018-01-28T01:12:26.903Z,48.48
2018-01-28T01:14:53.132Z,48.48
2018-01-28T01:17:19.411Z,48.50
2018-01-28T01:19:45.659Z,48.51
2018-01-28T01:22:11.843Z,48.51
2018-01-28T01:24:38.319Z,48.51
2018-01-28T01:27:10.801Z,48.49
2018-01-28T01:29:37.101Z,48.46
2018-01-28T01:32:03.346Z,48.43
2018-01-28T01:34:29.571Z,48.45
2018-01-28T01:36:55.874Z,48.43
2018-01-28T01:39:22.099Z,48.44
2018-01-28T01:41:48.579Z,48.42
2018-01-28T01:44:15.138Z,48.42
2018-01-28T01:46:41.340Z,48.44
2018-01-28T01:49:07.657Z,48.46
2018-01-28T01:51:33.888Z,48.50
2018-01-28T01:54:00.112Z,48.50
2018-01-28T01:56:26.709Z,48.49
2018-01-28T01:58:52.946Z,48.50
2018-01-28T02:01:19.149Z,48.49
2018-01-28T02:03:45.362Z,48.51
2018-01-28T02:06:11.546Z,48.52
2018-01-28T02:08:38.114Z,48.52
2018-01-28T02:11:04.394Z,48.54
2018-01-28T02:13:30.605Z,48.54
2018-01-28T02:15:56.826Z,48.53
2018-01-28T02:18:23.750Z,48.50
2018-01-28T02:20:50.096Z,48.52
2018-01-28T02:23:16.314Z,48.53
2018-01-28T02:25:43.486Z,48.50
2018-01-28T02:28:09.734Z,48.48
2018-01-28T02:30:36.316Z,48.48
2018-01-28T02:33:02.546Z,48.50
2018-01-28T02:35:28.789Z,48.51
2018-01-28T02:37:55.615Z,48.53
2018-01-28T02:40:21.835Z,48.50
2018-01-28T02:42:48.072Z,48.48
2018-01-28T02:45:14.291Z,48.48
2018-01-28T02:47:40.492Z,48.53
2018-01-28T02:50:07.068Z,48.53
2018-01-28T02:52:33.306Z,48.55
2018-01-28T02:54:59.564Z,48.56
2018-01-28T02:57:25.786Z,48.54
2018-01-28T02:59:52.046Z,48.52
2018-01-28T03:02:18.284Z,48.50
2018-01-28T03:04:44.555Z,48.50
2018-01-28T03:07:10.738Z,48.50
2018-01-28T03:09:36.971Z,48.49
2018-01-28T03:12:03.531Z,48.48
2018-01-28T03:14:29.711Z,48.47
2018-01-28T03:16:55.956Z,48.48
2018-01-28T03:19:22.519Z,48.47
2018-01-28T03:21:48.739Z,48.50
2018-01-28T03:24:15.036Z,48.49
2018-01-28T03:26:41.273Z,48.44
2018-01-28T03:29:07.486Z,48.46
2018-01-28T03:31:34.090Z,48.48
2018-01-28T03:34:00.376Z,48.49
2018-01-28T03:36:26.824Z,48.48
2018-01-28T03:38:53.461Z,48.48
2018-01-28T03:41:19.681Z,48.51
2018-01-28T03:43:46.234Z,48.50
2018-01-28T03:46:12.457Z,48.49
2018-01-28T03:48:38.894Z,48.50
2018-01-28T03:51:05.120Z,48.48
2018-01-28T03:53:31.963Z,48.48
2018-01-28T03:55:58.145Z,48.48
2018-01-28T03:58:24.356Z,48.48
2018-01-28T04:00:50.611Z,48.49
2018-01-28T04:03:17.082Z,48.50
2018-01-28T04:05:43.369Z,48.51
2018-01-28T04:08:09.552Z,48.49
2018-01-28T04:10:35.742Z,48.49
2018-01-28T04:13:02.444Z,48.50
2018-01-28T04:15:28.613Z,48.50
2018-01-28T04:17:54.796Z,48.54
2018-01-28T04:20:21.028Z,48.55
2018-01-28T04:22:47.230Z,48.52
2018-01-28T04:25:13.538Z,48.52
2018-01-28T04:27:40.131Z,48.52
2018-01-28T04:30:06.619Z,48.51
2018-01-28T04:32:32.809Z,48.51
2018-01-28T04:34:59.526Z,48.53
2018-01-28T04:37:25.730Z,48.55
2018-01-28T04:39:51.926Z,48.53
2018-01-28T04:42:18.674Z,48.52
2018-01-28T04:44:44.975Z,48.51
2018-01-28T04:47:11.182Z,48.52
2018-01-28T04:49:37.670Z,48.52
2018-01-28T04:52:04.208Z,48.51
2018-01-28T04:54:30.489Z,48.54
2018-01-28T04:56:56.730Z,48.56
2018-01-28T04:59:23.300Z,48.53
2018-01-28T05:01:50.940Z,48.49
2018-01-28T05:04:17.203Z,48.50
2018-01-28T05:06:43.717Z,48.46
2018-01-28T05:09:09.979Z,48.46
2018-01-28T05:11:36.239Z,48.44
2018-01-28T05:14:02.483Z,48.42
2018-01-28T05:16:28.795Z,48.39
2018-01-28T05:18:55.025Z,48.34
2018-01-28T05:21:21.297Z,48.37
2018-01-28T05:23:47.576Z,48.32
2018-01-28T05:26:13.865Z,48.29
2018-01-28T05:28:40.106Z,48.25
2018-01-28T05:31:06.296Z,48.23
2018-01-28T05:33:32.489Z,48.26
2018-01-28T05:35:59.078Z,48.24
2018-01-28T05:38:25.611Z,48.24
2018-01-28T05:40:51.840Z,48.22
2018-01-28T05:43:18.153Z,48.23
2018-01-28T05:45:44.371Z,48.25
2018-01-28T05:48:10.550Z,48.23
2018-01-28T05:50:36.790Z,48.20
2018-01-28T05:53:03.060Z,48.21
2018-01-28T05:55:29.300Z,48.23
2018-01-28T05:57:55.544Z,48.20
2018-01-28T06:00:21.762Z,48.20
2018-01-28T06:02:48.056Z,48.22
2018-01-28T06:05:14.264Z,48.20
2018-01-28T06:07:40.458Z,48.19
2018-01-28T06:10:06.700Z,48.14
2018-01-28T06:12:32.865Z,48.21
2018-01-28T06:14:59.097Z,48.20
2018-01-28T06:17:25.671Z,48.13
2018-01-28T06:19:51.865Z,48.17
2018-01-28T06:22:18.331Z,48.11
2018-01-28T06:24:44.581Z,48.08
2018-01-28T06:27:10.810Z,48.08
2018-01-28T06:29:37.077Z,48.04
2018-01-28T06:32:03.347Z,48.10
2018-01-28T06:34:29.528Z,48.11
2018-01-28T06:36:55.811Z,48.09
2018-01-28T06:39:22.333Z,48.08
2018-01-28T06:41:48.489Z,48.08
2018-01-28T06:44:14.811Z,48.09
2018-01-28T06:46:41.333Z,48.07
2018-01-28T06:49:07.551Z,48.08
2018-01-28T06:51:34.101Z,48.10
2018-01-28T06:54:00.450Z,48.05
2018-01-28T06:56:26.673Z,48.05
2018-01-28T06:58:52.894Z,48.06
2018-01-28T07:01:19.392Z,48.02
2018-01-28T07:03:45.853Z,48.01
2018-01-28T07:06:12.427Z,48.04
2018-01-28T07:08:38.656Z,48.05
2018-01-28T07:11:04.860Z,48.06
2018-01-28T07:13:31.060Z,48.04
2018-01-28T07:15:57.687Z,48.06
2018-01-28T07:18:23.895Z,48.04
2018-01-28T07:20:50.118Z,48.04
2018-01-28T07:23:16.316Z,48.05
2018-01-28T07:25:42.484Z,48.03
2018-01-28T07:28:09.115Z,48.03
2018-01-28T07:30:35.346Z,48.02
2018-01-28T07:33:01.539Z,47.96
2018-01-28T07:35:28.345Z,47.92
2018-01-28T07:37:54.526Z,47.91
2018-01-28T07:40:20.748Z,47.97
2018-01-28T07:42:46.960Z,47.95
2018-01-28T07:45:13.467Z,47.93
2018-01-28T07:47:39.641Z,47.92
2018-01-28T07:50:05.882Z,47.94
2018-01-28T07:52:32.361Z,47.92
2018-01-28T07:54:58.551Z,47.92
2018-01-28T07:57:24.826Z,47.95
2018-01-28T07:59:51.074Z,47.94
2018-01-28T08:02:17.625Z,47.94
2018-01-28T08:04:43.863Z,47.89
2018-01-28T08:07:10.207Z,47.86
2018-01-28T08:09:37.412Z,47.77
2018-01-28T08:15:02.866Z,47.77
2018-01-28T08:17:29.126Z,47.78
2018-01-28T08:19:55.438Z,47.73
2018-01-28T08:22:21.709Z,47.69
2018-01-28T08:24:47.935Z,47.66
2018-01-28T08:27:24.175Z,47.63
2018-01-28T08:29:50.443Z,47.59
2018-01-28T08:32:16.689Z,47.54
2018-01-28T08:34:42.902Z,47.51
2018-01-28T08:37:09.114Z,47.48
2018-01-28T08:39:35.749Z,47.40
2018-01-28T08:42:01.963Z,47.37
2018-01-28T08:44:28.217Z,47.38
2018-01-28T08:46:54.464Z,47.38
2018-01-28T08:49:20.678Z,47.36
2018-01-28T08:51:47.278Z,47.35
2018-01-28T08:54:13.505Z,47.34
2018-01-28T08:56:40.068Z,47.37
2018-01-28T08:59:06.310Z,47.25
2018-01-28T09:01:32.821Z,47.20
2018-01-28T09:03:59.050Z,47.14
2018-01-28T09:06:25.305Z,47.12
2018-01-28T09:08:51.510Z,47.04
2018-01-28T09:11:17.738Z,47.06
2018-01-28T09:13:43.990Z,46.98
2018-01-28T09:16:10.210Z,46.99
2018-01-28T09:18:36.425Z,46.94
2018-01-28T09:21:02.963Z,46.88
2018-01-28T09:23:29.593Z,46.86
2018-01-28T09:25:55.817Z,46.76
2018-01-28T09:28:22.071Z,46.78
2018-01-28T09:30:48.269Z,46.72
2018-01-28T09:33:20.604Z,46.69
2018-01-28T09:35:47.077Z,46.63
2018-01-28T09:38:13.513Z,46.59
2018-01-28T09:40:40.046Z,46.52
2018-01-28T09:43:06.295Z,46.50
2018-01-28T09:45:32.509Z,46.44
2018-01-28T09:47:58.733Z,46.40
2018-01-28T09:50:25.225Z,46.35
2018-01-28T09:52:51.460Z,46.32
2018-01-28T09:55:17.633Z,46.38
2018-01-28T09:57:44.157Z,46.38
2018-01-28T10:00:10.330Z,46.32
2018-01-28T10:02:36.530Z,46.33
2018-01-28T10:05:02.828Z,46.30
2018-01-28T10:07:29.114Z,46.26
2018-01-28T10:09:55.339Z,46.21
2018-01-28T10:12:21.571Z,46.17
2018-01-28T10:14:47.776Z,46.12
2018-01-28T10:17:14.036Z,46.03
2018-01-28T10:19:40.258Z,46.05
2018-01-28T10:22:06.446Z,45.94
2018-01-28T10:24:32.707Z,45.86
2018-01-28T10:26:58.990Z,45.89
2018-01-28T10:29:25.542Z,45.83
2018-01-28T10:31:51.794Z,45.85
2018-01-28T10:34:17.984Z,45.91
2018-01-28T10:36:44.210Z,45.96
2018-01-28T10:39:10.495Z,45.96
2018-01-28T10:41:36.701Z,45.96
2018-01-28T10:44:02.894Z,45.96
2018-01-28T10:46:29.236Z,45.93
2018-01-28T10:48:55.523Z,45.89
2018-01-28T10:51:21.998Z,45.88
2018-01-28T10:53:48.307Z,45.90
2018-01-28T10:56:14.518Z,45.85
2018-01-28T10:58:40.701Z,45.86
2018-01-28T11:01:07.225Z,45.91
2018-01-28T11:03:33.480Z,45.95
2018-01-28T11:05:59.784Z,45.97
2018-01-28T11:08:26.315Z,45.97
2018-01-28T11:10:52.851Z,45.96
2018-01-28T11:13:19.791Z,45.97
2018-01-28T11:15:46.029Z,45.98
2018-01-28T11:18:12.236Z,45.99
2018-01-28T11:20:38.497Z,46.03
2018-01-28T11:23:04.988Z,45.98
2018-01-28T11:25:31.195Z,45.99
2018-01-28T11:27:57.416Z,46.00
2018-01-28T11:30:23.650Z,46.02
2018-01-28T11:32:49.945Z,46.04
2018-01-28T11:35:16.237Z,46.05
2018-01-28T11:37:42.452Z,46.06
2018-01-28T11:40:08.703Z,46.08
2018-01-28T11:42:34.981Z,46.09
2018-01-28T11:45:01.176Z,46.10
2018-01-28T11:47:27.352Z,46.11
2018-01-28T11:49:53.929Z,46.13
2018-01-28T11:52:20.120Z,46.11
2018-01-28T11:54:46.605Z,46.05
2018-01-28T11:57:13.135Z,46.00
2018-01-28T11:59:39.375Z,45.97
2018-01-28T12:02:05.589Z,45.95
2018-01-28T12:04:31.834Z,45.96
2018-01-28T12:06:58.352Z,45.95
2018-01-28T12:09:24.589Z,45.98
2018-01-28T12:11:50.824Z,46.00
2018-01-28T12:14:17.339Z,45.99
2018-01-28T12:16:43.611Z,45.99
2018-01-28T12:19:09.779Z,46.00
2018-01-28T12:21:35.989Z,45.96
2018-01-28T12:24:02.236Z,45.99
2018-01-28T12:26:28.872Z,46.03
2018-01-28T12:28:55.077Z,46.04
2018-01-28T12:31:21.334Z,46.09
2018-01-28T12:33:47.962Z,46.14
2018-01-28T12:36:14.166Z,46.12
2018-01-28T12:38:40.381Z,46.12
2018-01-28T12:41:06.628Z,46.14
2018-01-28T12:43:32.913Z,46.15
2018-01-28T12:45:59.069Z,46.09
2018-01-28T12:48:25.400Z,46.10
2018-01-28T12:50:51.891Z,46.04
2018-01-28T12:53:18.424Z,46.01
2018-01-28T12:55:44.718Z,46.02
2018-01-28T12:58:10.975Z,46.02
2018-01-28T13:00:37.178Z,46.04
2018-01-28T13:03:03.400Z,46.08
2018-01-28T13:05:29.599Z,46.15
2018-01-28T13:07:56.511Z,46.17
2018-01-28T13:10:22.703Z,46.22
2018-01-28T13:12:48.887Z,46.27
2018-01-28T13:15:15.473Z,46.33
2018-01-28T13:17:41.694Z,46.38
2018-01-28T13:20:07.878Z,46.38
2018-01-28T13:22:34.409Z,46.45
2018-01-28T13:25:01.245Z,46.46
2018-01-28T13:27:27.457Z,46.48
2018-01-28T13:29:53.647Z,46.52
2018-01-28T13:32:19.899Z,46.53
2018-01-28T13:34:46.118Z,46.59
2018-01-28T13:37:12.332Z,46.62
2018-01-28T13:39:38.613Z,46.63
2018-01-28T13:42:04.816Z,46.67
2018-01-28T13:44:31.082Z,46.66
2018-01-28T13:46:57.648Z,46.66
2018-01-28T13:49:23.861Z,46.63
2018-01-28T13:51:50.078Z,46.61
2018-01-28T13:54:16.360Z,46.60
2018-01-28T13:56:42.549Z,46.58
2018-01-28T13:59:08.764Z,46.58
2018-01-28T14:01:35.004Z,46.56
2018-01-28T14:04:01.498Z,46.57
2018-01-28T14:06:27.725Z,46.61
2018-01-28T14:08:53.976Z,46.64
2018-01-28T14:11:20.171Z,46.67
2018-01-28T14:13:46.371Z,46.64
2018-01-28T14:16:12.645Z,46.66
2018-01-28T14:18:38.895Z,46.71
2018-01-28T14:21:05.103Z,46.75
2018-01-28T14:23:31.632Z,46.80
2018-01-28T14:25:58.213Z,46.86
2018-01-28T14:28:24.451Z,46.92
2018-01-28T14:30:50.710Z,46.95
2018-01-28T14:33:17.121Z,46.99
2018-01-28T14:35:43.325Z,47.02
2018-01-28T14:38:09.517Z,47.05
2018-01-28T14:40:35.779Z,47.07
2018-01-28T14:43:02.379Z,47.11
2018-01-28T14:45:28.644Z,47.11
2018-01-28T14:47:55.136Z,47.15
2018-01-28T14:50:21.358Z,47.18
2018-01-28T14:52:47.592Z,47.20
2018-01-28T14:55:13.845Z,47.22
2018-01-28T14:57:40.079Z,47.24
2018-01-28T15:00:06.362Z,47.28
2018-01-28T15:02:32.618Z,47.30
2018-01-28T15:04:58.820Z,47.32
2018-01-28T15:07:25.048Z,47.33
2018-01-28T15:09:51.254Z,47.37
2018-01-28T15:12:17.457Z,47.40
2018-01-28T15:14:43.709Z,47.39
2018-01-28T15:17:10.181Z,47.40
2018-01-28T15:19:36.362Z,47.42
2018-01-28T15:22:02.691Z,47.46
2018-01-28T15:24:28.908Z,47.50
2018-01-28T15:26:55.095Z,47.51
2018-01-28T15:29:21.319Z,47.51
2018-01-28T15:31:47.558Z,47.51
2018-01-28T15:34:13.831Z,47.51
2018-01-28T15:36:40.002Z,47.52
2018-01-28T15:39:06.215Z,47.53
2018-01-28T15:41:32.983Z,47.58
2018-01-28T15:43:59.173Z,47.61
2018-01-28T15:46:25.405Z,47.62
2018-01-28T15:48:51.971Z,47.63
2018-01-28T15:51:18.203Z,47.65
2018-01-28T15:53:44.441Z,47.67
2018-01-28T15:56:10.708Z,47.70
2018-01-28T15:58:36.923Z,47.71
2018-01-28T16:01:03.129Z,47.72
2018-01-28T16:03:29.645Z,47.70
2018-01-28T16:05:55.895Z,47.71
2018-01-28T16:08:22.171Z,47.74
2018-01-28T16:10:48.381Z,47.74
2018-01-28T16:13:14.867Z,47.76
2018-01-28T16:15:41.120Z,47.79
2018-01-28T16:18:07.299Z,47.79
2018-01-28T16:20:33.496Z,47.82
2018-01-28T16:23:00.090Z,47.84
2018-01-28T16:25:26.300Z,47.88
2018-01-28T16:27:52.575Z,47.89
2018-01-28T16:30:19.075Z,47.90
2018-01-28T16:32:45.612Z,47.92
2018-01-28T16:35:12.166Z,47.94
2018-01-28T16:37:38.361Z,47.96
2018-01-28T16:40:04.568Z,47.97
2018-01-28T16:42:30.799Z,48.01
2018-01-28T16:44:57.375Z,48.03
2018-01-28T16:47:23.669Z,48.05
2018-01-28T16:49:49.860Z,48.06
2018-01-28T16:52:16.077Z,48.05
2018-01-28T16:54:42.328Z,48.08
2018-01-28T16:57:08.555Z,48.07
2018-01-28T16:59:34.752Z,48.07
2018-01-28T17:02:01.083Z,48.07
2018-01-28T17:04:27.270Z,48.12
2018-01-28T17:06:53.838Z,48.12
2018-01-28T17:09:20.060Z,48.14
2018-01-28T17:11:46.272Z,48.13
2018-01-28T17:14:12.595Z,48.16
2018-01-28T17:16:38.826Z,48.21
2018-01-28T17:19:05.033Z,48.23
2018-01-28T17:21:31.236Z,48.26
2018-01-28T17:23:58.150Z,48.30
2018-01-28T17:26:24.360Z,48.34
2018-01-28T17:28:50.637Z,48.33
2018-01-28T17:31:17.161Z,48.32
2018-01-28T17:33:43.463Z,48.34
2018-01-28T17:36:09.705Z,48.36
2018-01-28T17:38:35.978Z,48.38
2018-01-28T17:41:02.580Z,48.42
2018-01-28T17:43:28.874Z,48.42
2018-01-28T17:45:55.105Z,48.40
2018-01-28T17:48:21.322Z,48.40
2018-01-28T17:50:47.530Z,48.43
2018-01-28T17:53:13.779Z,48.48
2018-01-28T17:55:40.242Z,48.53
2018-01-28T17:58:06.439Z,48.53
2018-01-28T18:00:32.682Z,48.54
2018-01-28T18:02:58.875Z,48.60
2018-01-28T18:05:25.127Z,48.62
2018-01-28T18:07:51.639Z,48.62
2018-01-28T18:10:17.846Z,48.65
2018-01-28T18:12:44.035Z,48.69
2018-01-28T18:15:10.327Z,48.72
2018-01-28T18:17:36.560Z,48.78
2018-01-28T18:20:02.781Z,48.83
2018-01-28T18:22:29.358Z,48.86
2018-01-28T18:24:55.640Z,48.85
2018-01-28T18:27:21.866Z,48.85
2018-01-28T18:29:48.188Z,48.88
2018-01-28T18:32:14.375Z,48.91
2018-01-28T18:34:40.916Z,48.94
2018-01-28T18:37:07.507Z,48.98
2018-01-28T18:39:33.790Z,48.99
2018-01-28T18:42:00.017Z,48.97
2018-01-28T18:44:26.263Z,49.00
2018-01-28T18:46:52.458Z,49.04
2018-01-28T18:49:18.747Z,49.09
2018-01-28T18:51:44.947Z,49.09
2018-01-28T18:54:11.439Z,49.11
2018-01-28T18:56:38.056Z,49.17
2018-01-28T18:59:04.262Z,49.18
2018-01-28T19:01:30.445Z,49.22
2018-01-28T19:03:56.703Z,49.25
2018-01-28T19:06:22.891Z,49.29
2018-01-28T19:08:49.341Z,49.33
2018-01-28T19:11:15.872Z,49.38
2018-01-28T19:13:42.078Z,49.38
2018-01-28T19:16:08.636Z,49.37
2018-01-28T19:18:34.946Z,49.42
2018-01-28T19:21:01.159Z,49.42
2018-01-28T19:23:27.451Z,49.42
2018-01-28T19:25:53.770Z,49.42
2018-01-28T19:28:20.003Z,49.52
2018-01-28T19:30:46.232Z,49.54
2018-01-28T19:33:12.424Z,49.51
2018-01-28T19:35:38.643Z,49.55
2018-01-28T19:40:36.661Z,49.57
2018-01-28T19:43:02.904Z,49.58
2018-01-28T19:45:29.113Z,49.66
2018-01-28T19:47:55.363Z,49.62
2018-01-28T19:50:21.539Z,49.61
2018-01-28T19:52:47.725Z,49.66
2018-01-28T19:55:13.965Z,49.64
2018-01-28T19:57:40.146Z,49.67
2018-01-28T20:00:06.342Z,49.70
2018-01-28T20:02:32.572Z,49.75
2018-01-28T20:04:58.768Z,49.76
2018-01-28T20:07:24.946Z,49.80
2018-01-28T20:09:51.154Z,49.81
2018-01-28T20:12:17.421Z,49.82
2018-01-28T20:14:43.646Z,49.80
2018-01-28T20:17:09.867Z,49.79
2018-01-28T20:19:36.116Z,49.84
2018-01-28T20:22:02.293Z,49.87
2018-01-28T20:24:28.755Z,49.92
2018-01-28T20:26:55.078Z,49.94
2018-01-28T20:29:21.327Z,49.95
2018-01-28T20:31:47.520Z,49.99
2018-01-28T20:34:13.762Z,49.99
2018-01-28T20:36:39.971Z,50.04
2018-01-28T20:39:06.230Z,50.06
2018-01-28T20:41:32.504Z,50.06
2018-01-28T20:43:58.715Z,50.15
2018-01-28T20:46:25.526Z,50.19
2018-01-28T20:48:51.728Z,50.16
2018-01-28T20:51:17.930Z,50.21
2018-01-28T20:53:44.514Z,50.18
2018-01-28T20:56:10.740Z,50.18
2018-01-28T20:58:37.287Z,50.21
2018-01-28T21:01:03.914Z,50.23
2018-01-28T21:03:30.113Z,50.30
2018-01-28T21:05:56.301Z,50.23
2018-01-28T21:08:22.862Z,50.26
2018-01-28T21:10:49.039Z,50.28
2018-01-28T21:13:15.571Z,50.27
2018-01-28T21:15:41.796Z,50.33
2018-01-28T21:18:08.068Z,50.34
2018-01-28T21:20:34.289Z,50.28
2018-01-28T21:23:00.546Z,50.23
2018-01-28T21:25:26.768Z,50.28
2018-01-28T21:27:52.965Z,50.28
2018-01-28T21:30:19.481Z,50.33
2018-01-28T21:32:45.651Z,50.30
2018-01-28T21:35:11.853Z,50.38
2018-01-28T21:37:38.030Z,50.37
2018-01-28T21:40:04.257Z,50.39
2018-01-28T21:42:30.453Z,50.48
2018-01-28T21:44:56.630Z,50.46
2018-01-28T21:47:23.482Z,50.44
2018-01-28T21:49:49.668Z,50.44
2018-01-28T21:52:15.836Z,50.49
2018-01-28T21:54:42.364Z,50.50
2018-01-28T21:57:08.621Z,50.51
2018-01-28T21:59:35.199Z,50.54
2018-01-28T22:02:01.678Z,50.59
2018-01-28T22:04:27.883Z,50.58
2018-01-28T22:06:54.103Z,50.66
2018-01-28T22:09:22.280Z,50.67
2018-01-28T22:11:48.512Z,50.65
2018-01-28T22:14:14.958Z,50.66
2018-01-28T22:16:41.497Z,50.68
2018-01-28T22:19:07.705Z,50.70
2018-01-28T22:21:33.867Z,50.72
2018-01-28T22:24:00.078Z,50.76
2018-01-28T22:26:26.252Z,50.79
2018-01-28T22:28:53.152Z,50.84
2018-01-28T22:31:19.356Z,50.82
2018-01-28T22:33:45.566Z,50.78
2018-01-28T22:36:11.804Z,50.79
2018-01-28T22:38:37.993Z,50.80
2018-01-28T22:41:04.502Z,50.81
2018-01-28T22:43:30.805Z,50.87
2018-01-28T22:45:57.258Z,50.90
2018-01-28T22:48:23.449Z,50.92
2018-01-28T22:50:49.686Z,50.95
2018-01-28T22:53:15.921Z,50.99
2018-01-28T22:55:42.488Z,50.96
2018-01-28T22:58:09.021Z,51.00
2018-01-28T23:00:35.203Z,50.95
2018-01-28T23:03:01.775Z,50.96
2018-01-28T23:05:27.968Z,50.95
2018-01-28T23:07:54.539Z,50.98
2018-01-28T23:10:20.774Z,50.98
2018-01-28T23:12:46.962Z,51.03
2018-01-28T23:15:13.160Z,51.08
2018-01-28T23:17:39.407Z,51.13
2018-01-28T23:20:05.631Z,51.14
2018-01-28T23:22:31.852Z,51.15
2018-01-28T23:24:58.073Z,51.21
2018-01-28T23:27:24.565Z,51.19
2018-01-28T23:29:50.806Z,51.16
2018-01-28T23:32:17.329Z,51.14
2018-01-28T23:34:43.557Z,51.16
2018-01-28T23:37:09.821Z,51.24
2018-01-28T23:39:36.140Z,51.26
2018-01-28T23:42:02.324Z,51.24
2018-01-28T23:44:28.783Z,51.30
2018-01-28T23:46:55.058Z,51.29
2018-01-28T23:49:21.291Z,51.31
2018-01-28T23:51:47.498Z,51.33
2018-01-28T23:54:13.764Z,51.32
2018-01-28T23:56:40.031Z,51.33
2018-01-28T23:59:06.221Z,51.32
